OMAA/AUH METAR and TAF weather

Enter ICAO airport designator
Station Type Date Time Source
OMAA METAR 2020/03/28 14:00 UTC NOAA

OMAA 281400Z 14008KT 8000 NSC 34/09 Q1009 NOSIG


Station Type Date Time Source
OMAA Decoded METAR 2020/03/28 14:00 UTC NOAA

Abu Dhabi International Airport, United Arab Emirates (OMAA) 24-26N 054-39E 27M
Mar 28, 2020 - 10:00 AM EDT / 2020.03.28 1400 UTC
Wind: from the SE (140 degrees) at 9 MPH (8 KT):0
Visibility: 4 mile(s):0
Temperature: 93 F (34 C)
Dew Point: 48 F (9 C)
Relative Humidity: 21%
Pressure (altimeter): 29.80 in. Hg (1009 hPa)
ob: OMAA 281400Z 14008KT 8000 NSC 34/09 Q1009 NOSIG
cycle: 14

Station Type Date Time Source
OMAA TAF 2020/03/28 12:12 UTC NOAA

TAF TAF OMAA 281100Z 2812/2918 20012KT 8000 FEW030
BECMG 2813/2815 05008KT
BECMG 2816/2818 17012KT PROB40
TEMPO 2902/2914 17018G28KT 3000 BLDU FEW040TCU

Example: see airport list